sensor_id;sensor_type;location;lat;lon;timestamp;pressure;altitude;pressure_sealevel;temperature;humidity
20909;BME280;10614;53.198;6.570;2022-10-23T00:00:19;101510.53;;;11.41;100.00
20909;BME280;10614;53.198;6.570;2022-10-23T00:02:22;101514.13;;;11.38;100.00
20909;BME280;10614;53.198;6.570;2022-10-23T00:04:24;101511.50;;;11.38;100.00
20909;BME280;10614;53.198;6.570;2022-10-23T00:06:27;101503.66;;;11.35;100.00
20909;BME280;10614;53.198;6.570;2022-10-23T00:08:28;101507.22;;;11.34;100.00
20909;BME280;10614;53.198;6.570;2022-10-23T00:10:30;101510.78;;;11.33;100.00
20909;BME280;10614;53.198;6.570;2022-10-23T00:12:32;101506.41;;;11.32;100.00
20909;BME280;10614;53.198;6.570;2022-10-23T00:14:33;101504.63;;;11.33;100.00
20909;BME280;10614;53.198;6.570;2022-10-23T00:16:35;101507.25;;;11.33;100.00
20909;BME280;10614;53.198;6.570;2022-10-23T00:18:39;101502.91;;;11.32;100.00
20909;BME280;10614;53.198;6.570;2022-10-23T00:20:40;101498.56;;;11.31;100.00
20909;BME280;10614;53.198;6.570;2022-10-23T00:22:42;101501.13;;;11.32;100.00
20909;BME280;10614;53.198;6.570;2022-10-23T00:24:44;101500.28;;;11.32;100.00
20909;BME280;10614;53.198;6.570;2022-10-23T00:26:48;101501.22;;;11.31;100.00
20909;BME280;10614;53.198;6.570;2022-10-23T00:28:51;101501.25;;;11.29;100.00
20909;BME280;10614;53.198;6.570;2022-10-23T00:30:53;101490.66;;;11.31;100.00
20909;BME280;10614;53.198;6.570;2022-10-23T00:32:55;101496.78;;;11.31;100.00
20909;BME280;10614;53.198;6.570;2022-10-23T00:34:58;101493.31;;;11.31;100.00
20909;BME280;10614;53.198;6.570;2022-10-23T00:37:00;101496.81;;;11.30;100.00
20909;BME280;10614;53.198;6.570;2022-10-23T00:39:02;101494.19;;;11.30;100.00
20909;BME280;10614;53.198;6.570;2022-10-23T00:41:06;101497.75;;;11.29;100.00
20909;BME280;10614;53.198;6.570;2022-10-23T00:43:16;101503.88;;;11.29;100.00
20909;BME280;10614;53.198;6.570;2022-10-23T00:45:21;101500.38;;;11.29;100.00
20909;BME280;10614;53.198;6.570;2022-10-23T00:47:22;101506.50;;;11.29;100.00
20909;BME280;10614;53.198;6.570;2022-10-23T00:49:24;101501.28;;;11.28;100.00
20909;BME280;10614;53.198;6.570;2022-10-23T00:51:32;101504.00;;;11.26;100.00
20909;BME280;10614;53.198;6.570;2022-10-23T00:53:34;101504.00;;;11.26;100.00
20909;BME280;10614;53.198;6.570;2022-10-23T00:55:36;101507.50;;;11.25;100.00
20909;BME280;10614;53.198;6.570;2022-10-23T00:57:42;101512.81;;;11.24;100.00
20909;BME280;10614;53.198;6.570;2022-10-23T00:59:44;101506.84;;;11.18;100.00
20909;BME280;10614;53.198;6.570;2022-10-23T01:01:45;101513.78;;;11.21;100.00
20909;BME280;10614;53.198;6.570;2022-10-23T01:03:47;101505.88;;;11.21;100.00
20909;BME280;10614;53.198;6.570;2022-10-23T01:05:53;101512.09;;;11.20;100.00
20909;BME280;10614;53.198;6.570;2022-10-23T01:08:01;101510.34;;;11.19;100.00
20909;BME280;10614;53.198;6.570;2022-10-23T01:10:12;101509.56;;;11.17;100.00
20909;BME280;10614;53.198;6.570;2022-10-23T01:12:23;101512.13;;;11.18;100.00
20909;BME280;10614;53.198;6.570;2022-10-23T01:14:31;101511.25;;;11.18;100.00
20909;BME280;10614;53.198;6.570;2022-10-23T01:16:38;101510.41;;;11.17;100.00
20909;BME280;10614;53.198;6.570;2022-10-23T01:18:48;101508.66;;;11.16;100.00
20909;BME280;10614;53.198;6.570;2022-10-23T01:20:57;101506.03;;;11.16;100.00
20909;BME280;10614;53.198;6.570;2022-10-23T01:23:25;101506.09;;;11.15;100.00
20909;BME280;10614;53.198;6.570;2022-10-23T01:25:40;101504.34;;;11.14;100.00
20909;BME280;10614;53.198;6.570;2022-10-23T01:27:50;101499.09;;;11.14;100.00
20909;BME280;10614;53.198;6.570;2022-10-23T01:30:00;101494.84;;;11.10;100.00
20909;BME280;10614;53.198;6.570;2022-10-23T01:32:08;101500.13;;;11.10;100.00
20909;BME280;10614;53.198;6.570;2022-10-23T01:34:13;101508.03;;;11.10;100.00
20909;BME280;10614;53.198;6.570;2022-10-23T01:36:17;101508.91;;;11.09;100.00
20909;BME280;10614;53.198;6.570;2022-10-23T01:38:24;101503.69;;;11.07;100.00
20909;BME280;10614;53.198;6.570;2022-10-23T01:40:29;101498.41;;;11.07;100.00
20909;BME280;10614;53.198;6.570;2022-10-23T01:42:36;101494.94;;;11.07;100.00
20909;BME280;10614;53.198;6.570;2022-10-23T01:44:44;101495.84;;;11.06;100.00
20909;BME280;10614;53.198;6.570;2022-10-23T01:46:48;101499.34;;;11.06;100.00
20909;BME280;10614;53.198;6.570;2022-10-23T01:48:52;101489.75;;;11.04;100.00
20909;BME280;10614;53.198;6.570;2022-10-23T01:50:56;101490.66;;;11.03;100.00
20909;BME280;10614;53.198;6.570;2022-10-23T01:52:59;101493.34;;;11.01;100.00
20909;BME280;10614;53.198;6.570;2022-10-23T01:55:00;101488.09;;;11.01;100.00
20909;BME280;10614;53.198;6.570;2022-10-23T01:57:03;101475.88;;;10.98;100.00
20909;BME280;10614;53.198;6.570;2022-10-23T01:59:10;101479.34;;;11.01;100.00
20909;BME280;10614;53.198;6.570;2022-10-23T02:01:17;101476.75;;;10.99;100.00
20909;BME280;10614;53.198;6.570;2022-10-23T02:03:20;101484.63;;;10.99;100.00
20909;BME280;10614;53.198;6.570;2022-10-23T02:05:25;101484.63;;;10.99;100.00
20909;BME280;10614;53.198;6.570;2022-10-23T02:07:27;101487.28;;;10.99;100.00
20909;BME280;10614;53.198;6.570;2022-10-23T02:09:29;101475.88;;;10.98;100.00
20909;BME280;10614;53.198;6.570;2022-10-23T02:11:34;101478.50;;;10.98;100.00
20909;BME280;10614;53.198;6.570;2022-10-23T02:13:43;101473.31;;;10.95;100.00
20909;BME280;10614;53.198;6.570;2022-10-23T02:15:47;101472.47;;;10.95;100.00
20909;BME280;10614;53.198;6.570;2022-10-23T02:17:59;101467.31;;;10.92;100.00
20909;BME280;10614;53.198;6.570;2022-10-23T02:20:11;101467.25;;;10.93;100.00
20909;BME280;10614;53.198;6.570;2022-10-23T02:22:19;101466.38;;;10.93;100.00
20909;BME280;10614;53.198;6.570;2022-10-23T02:24:29;101468.16;;;10.92;100.00
20909;BME280;10614;53.198;6.570;2022-10-23T02:26:35;101465.53;;;10.92;100.00
20909;BME280;10614;53.198;6.570;2022-10-23T02:28:42;101466.38;;;10.93;100.00
20909;BME280;10614;53.198;6.570;2022-10-23T02:30:46;101468.16;;;10.92;100.00
20909;BME280;10614;53.198;6.570;2022-10-23T02:32:52;101450.66;;;10.91;100.00
20909;BME280;10614;53.198;6.570;2022-10-23T02:34:55;101455.91;;;10.91;100.00
20909;BME280;10614;53.198;6.570;2022-10-23T02:36:57;101467.34;;;10.90;100.00
20909;BME280;10614;53.198;6.570;2022-10-23T02:38:59;101449.88;;;10.88;100.00
20909;BME280;10614;53.198;6.570;2022-10-23T02:41:15;101455.13;;;10.88;100.00
20909;BME280;10614;53.198;6.570;2022-10-23T02:43:22;101448.19;;;10.85;100.00
20909;BME280;10614;53.198;6.570;2022-10-23T02:45:29;101447.38;;;10.83;100.00
20909;BME280;10614;53.198;6.570;2022-10-23T02:47:42;101448.34;;;10.81;100.00
20909;BME280;10614;53.198;6.570;2022-10-23T02:49:52;101435.28;;;10.77;100.00
20909;BME280;10614;53.198;6.570;2022-10-23T02:52:04;101445.84;;;10.76;100.00
20909;BME280;10614;53.198;6.570;2022-10-23T02:54:14;101436.22;;;10.75;100.00
20909;BME280;10614;53.198;6.570;2022-10-23T02:56:22;101439.75;;;10.74;100.00
20909;BME280;10614;53.198;6.570;2022-10-23T02:58:29;101433.69;;;10.72;100.00
20909;BME280;10614;53.198;6.570;2022-10-23T03:00:37;101436.41;;;10.69;100.00
20909;BME280;10614;53.198;6.570;2022-10-23T03:02:44;101421.63;;;10.65;100.00
20909;BME280;10614;53.198;6.570;2022-10-23T03:04:50;101426.03;;;10.64;100.00
20909;BME280;10614;53.198;6.570;2022-10-23T03:06:52;101433.09;;;10.62;100.00
20909;BME280;10614;53.198;6.570;2022-10-23T03:08:58;101429.66;;;10.60;100.00
20909;BME280;10614;53.198;6.570;2022-10-23T03:10:59;101420.94;;;10.58;100.00
20909;BME280;10614;53.198;6.570;2022-10-23T03:13:01;101414.00;;;10.55;100.00
20909;BME280;10614;53.198;6.570;2022-10-23T03:15:03;101407.13;;;10.51;100.00
20909;BME280;10614;53.198;6.570;2022-10-23T03:17:05;101406.31;;;10.49;100.00
20909;BME280;10614;53.198;6.570;2022-10-23T03:19:06;101411.59;;;10.48;100.00
20909;BME280;10614;53.198;6.570;2022-10-23T03:21:09;101413.38;;;10.47;100.00
20909;BME280;10614;53.198;6.570;2022-10-23T03:23:12;101422.19;;;10.46;100.00
20909;BME280;10614;53.198;6.570;2022-10-23T03:25:14;101419.53;;;10.46;100.00
20909;BME280;10614;53.198;6.570;2022-10-23T03:27:16;101422.19;;;10.46;100.00
20909;BME280;10614;53.198;6.570;2022-10-23T03:29:17;101420.47;;;10.45;100.00
20909;BME280;10614;53.198;6.570;2022-10-23T03:31:19;101417.00;;;10.43;100.00
20909;BME280;10614;53.198;6.570;2022-10-23T03:33:21;101422.19;;;10.46;100.00
20909;BME280;10614;53.198;6.570;2022-10-23T03:35:23;101412.59;;;10.44;100.00
20909;BME280;10614;53.198;6.570;2022-10-23T03:37:25;101411.66;;;10.46;100.00
20909;BME280;10614;53.198;6.570;2022-10-23T03:39:27;101409.91;;;10.47;100.00
20909;BME280;10614;53.198;6.570;2022-10-23T03:41:29;101413.41;;;10.46;100.00
20909;BME280;10614;53.198;6.570;2022-10-23T03:43:30;101413.41;;;10.46;100.00
20909;BME280;10614;53.198;6.570;2022-10-23T03:45:32;101402.06;;;10.44;100.00
20909;BME280;10614;53.198;6.570;2022-10-23T03:47:34;101397.78;;;10.41;100.00
20909;BME280;10614;53.198;6.570;2022-10-23T03:49:39;101402.13;;;10.42;100.00
20909;BME280;10614;53.198;6.570;2022-10-23T03:51:42;101395.22;;;10.40;100.00
20909;BME280;10614;53.198;6.570;2022-10-23T03:53:45;101398.72;;;10.39;100.00
20909;BME280;10614;53.198;6.570;2022-10-23T03:55:47;101398.75;;;10.37;100.00
20909;BME280;10614;53.198;6.570;2022-10-23T03:57:48;101403.25;;;10.35;100.00
20909;BME280;10614;53.198;6.570;2022-10-23T03:59:50;101396.22;;;10.34;100.00
20909;BME280;10614;53.198;6.570;2022-10-23T04:01:51;101396.31;;;10.32;100.00
20909;BME280;10614;53.198;6.570;2022-10-23T04:03:53;101398.00;;;10.33;100.00
20909;BME280;10614;53.198;6.570;2022-10-23T04:05:55;101389.34;;;10.30;100.00
20909;BME280;10614;53.198;6.570;2022-10-23T04:07:56;101395.41;;;10.32;100.00
20909;BME280;10614;53.198;6.570;2022-10-23T04:09:59;101395.41;;;10.32;100.00
20909;BME280;10614;53.198;6.570;2022-10-23T04:12:01;101389.34;;;10.30;100.00
20909;BME280;10614;53.198;6.570;2022-10-23T04:14:03;101393.69;;;10.31;100.00
20909;BME280;10614;53.198;6.570;2022-10-23T04:16:05;101384.06;;;10.30;100.00
20909;BME280;10614;53.198;6.570;2022-10-23T04:18:06;101378.00;;;10.28;100.00
20909;BME280;10614;53.198;6.570;2022-10-23T04:20:08;101364.81;;;10.28;100.00
20909;BME280;10614;53.198;6.570;2022-10-23T04:22:10;101368.38;;;10.25;100.00
20909;BME280;10614;53.198;6.570;2022-10-23T04:24:12;101371.94;;;10.24;100.00
20909;BME280;10614;53.198;6.570;2022-10-23T04:26:15;101373.72;;;10.24;100.00
20909;BME280;10614;53.198;6.570;2022-10-23T04:28:16;101371.97;;;10.23;100.00
20909;BME280;10614;53.198;6.570;2022-10-23T04:30:18;101378.13;;;10.23;100.00
20909;BME280;10614;53.198;6.570;2022-10-23T04:32:19;101374.69;;;10.21;100.00
20909;BME280;10614;53.198;6.570;2022-10-23T04:34:21;101360.63;;;10.21;100.00
20909;BME280;10614;53.198;6.570;2022-10-23T04:36:23;101365.91;;;10.21;100.00
20909;BME280;10614;53.198;6.570;2022-10-23T04:38:25;101359.78;;;10.20;100.00
20909;BME280;10614;53.198;6.570;2022-10-23T04:40:26;101365.91;;;10.21;100.00
20909;BME280;10614;53.198;6.570;2022-10-23T04:42:29;101358.97;;;10.18;100.00
20909;BME280;10614;53.198;6.570;2022-10-23T04:44:31;101362.41;;;10.20;100.00
20909;BME280;10614;53.198;6.570;2022-10-23T04:46:33;101363.25;;;10.21;100.00
20909;BME280;10614;53.198;6.570;2022-10-23T04:48:34;101364.19;;;10.20;100.00
20909;BME280;10614;53.198;6.570;2022-10-23T04:50:36;101370.25;;;10.22;100.00
20909;BME280;10614;53.198;6.570;2022-10-23T04:52:38;101372.91;;;10.22;100.00
20909;BME280;10614;53.198;6.570;2022-10-23T04:54:39;101371.97;;;10.23;100.00
20909;BME280;10614;53.198;6.570;2022-10-23T04:56:41;101372.84;;;10.23;100.00
20909;BME280;10614;53.198;6.570;2022-10-23T04:58:44;101374.56;;;10.24;100.00
20909;BME280;10614;53.198;6.570;2022-10-23T05:00:46;101364.03;;;10.24;100.00
20909;BME280;10614;53.198;6.570;2022-10-23T05:02:48;101357.00;;;10.25;100.00
20909;BME280;10614;53.198;6.570;2022-10-23T05:04:50;101346.47;;;10.25;100.00
20909;BME280;10614;53.198;6.570;2022-10-23T05:06:51;101354.38;;;10.25;100.00
20909;BME280;10614;53.198;6.570;2022-10-23T05:08:53;101357.00;;;10.25;100.00
20909;BME280;10614;53.198;6.570;2022-10-23T05:10:55;101354.38;;;10.25;100.00
20909;BME280;10614;53.198;6.570;2022-10-23T05:12:57;101354.44;;;10.23;100.00
20909;BME280;10614;53.198;6.570;2022-10-23T05:15:00;101353.53;;;10.24;100.00
20909;BME280;10614;53.198;6.570;2022-10-23T05:17:03;101359.63;;;10.25;100.00
20909;BME280;10614;53.198;6.570;2022-10-23T05:19:13;101362.22;;;10.26;100.00
20909;BME280;10614;53.198;6.570;2022-10-23T05:21:21;101356.13;;;10.26;100.00
20909;BME280;10614;53.198;6.570;2022-10-23T05:23:25;101355.22;;;10.25;100.00
20909;BME280;10614;53.198;6.570;2022-10-23T05:25:29;101353.50;;;10.26;100.00
20909;BME280;10614;53.198;6.570;2022-10-23T05:27:30;101343.81;;;10.26;100.00
20909;BME280;10614;53.198;6.570;2022-10-23T05:29:32;101342.91;;;10.27;100.00
20909;BME280;10614;53.198;6.570;2022-10-23T05:31:35;101337.63;;;10.27;100.00
20909;BME280;10614;53.198;6.570;2022-10-23T05:33:37;101328.88;;;10.27;100.00
20909;BME280;10614;53.198;6.570;2022-10-23T05:35:41;101317.50;;;10.26;100.00
20909;BME280;10614;53.198;6.570;2022-10-23T05:37:44;101321.00;;;10.27;100.00
20909;BME280;10614;53.198;6.570;2022-10-23T05:39:47;101308.69;;;10.29;100.00
20909;BME280;10614;53.198;6.570;2022-10-23T05:41:49;101327.09;;;10.29;100.00
20909;BME280;10614;53.198;6.570;2022-10-23T05:43:51;101316.59;;;10.27;100.00
20909;BME280;10614;53.198;6.570;2022-10-23T05:45:53;101313.09;;;10.28;100.00
20909;BME280;10614;53.198;6.570;2022-10-23T05:47:56;101310.47;;;10.28;100.00
20909;BME280;10614;53.198;6.570;2022-10-23T05:49:58;101309.56;;;10.28;100.00
20909;BME280;10614;53.198;6.570;2022-10-23T05:51:59;101299.09;;;10.26;100.00
20909;BME280;10614;53.198;6.570;2022-10-23T05:54:01;101302.56;;;10.27;100.00
20909;BME280;10614;53.198;6.570;2022-10-23T05:56:04;101296.47;;;10.26;100.00
20909;BME280;10614;53.198;6.570;2022-10-23T05:58:06;101302.59;;;10.25;100.00
20909;BME280;10614;53.198;6.570;2022-10-23T06:00:09;101299.13;;;10.25;100.00
20909;BME280;10614;53.198;6.570;2022-10-23T06:02:10;101306.13;;;10.26;100.00
20909;BME280;10614;53.198;6.570;2022-10-23T06:04:13;101290.41;;;10.23;100.00
20909;BME280;10614;53.198;6.570;2022-10-23T06:06:15;101294.72;;;10.25;100.00
20909;BME280;10614;53.198;6.570;2022-10-23T06:08:17;101289.56;;;10.22;100.00
20909;BME280;10614;53.198;6.570;2022-10-23T06:10:19;101294.78;;;10.24;100.00
20909;BME280;10614;53.198;6.570;2022-10-23T06:12:21;101298.28;;;10.24;100.00
20909;BME280;10614;53.198;6.570;2022-10-23T06:14:23;101293.94;;;10.23;100.00
20909;BME280;10614;53.198;6.570;2022-10-23T06:16:24;101292.16;;;10.24;100.00
20909;BME280;10614;53.198;6.570;2022-10-23T06:18:26;101291.34;;;10.22;100.00
20909;BME280;10614;53.198;6.570;2022-10-23T06:20:29;101293.97;;;10.22;100.00
20909;BME280;10614;53.198;6.570;2022-10-23T06:22:30;101291.34;;;10.22;100.00
20909;BME280;10614;53.198;6.570;2022-10-23T06:24:32;101300.13;;;10.21;100.00
20909;BME280;10614;53.198;6.570;2022-10-23T06:26:33;101294.00;;;10.20;100.00
20909;BME280;10614;53.198;6.570;2022-10-23T06:28:35;101289.56;;;10.22;100.00
20909;BME280;10614;53.198;6.570;2022-10-23T06:30:37;101290.47;;;10.21;100.00
20909;BME280;10614;53.198;6.570;2022-10-23T06:32:39;101297.47;;;10.22;100.00
20909;BME280;10614;53.198;6.570;2022-10-23T06:34:41;101293.97;;;10.22;100.00
20909;BME280;10614;53.198;6.570;2022-10-23T06:36:44;101300.09;;;10.22;100.00
20909;BME280;10614;53.198;6.570;2022-10-23T06:38:45;101298.31;;;10.23;100.00
20909;BME280;10614;53.198;6.570;2022-10-23T06:40:51;101296.59;;;10.22;100.00
20909;BME280;10614;53.198;6.570;2022-10-23T06:42:54;101295.69;;;10.23;100.00
20909;BME280;10614;53.198;6.570;2022-10-23T06:44:56;101296.59;;;10.22;100.00
20909;BME280;10614;53.198;6.570;2022-10-23T06:46:58;101299.19;;;10.23;100.00
20909;BME280;10614;53.198;6.570;2022-10-23T06:49:01;101292.19;;;10.22;100.00
20909;BME280;10614;53.198;6.570;2022-10-23T06:51:05;101294.78;;;10.24;100.00
20909;BME280;10614;53.198;6.570;2022-10-23T06:53:09;101294.78;;;10.24;100.00
20909;BME280;10614;53.198;6.570;2022-10-23T06:55:11;101300.03;;;10.24;100.00
20909;BME280;10614;53.198;6.570;2022-10-23T06:57:13;101297.34;;;10.25;100.00
20909;BME280;10614;53.198;6.570;2022-10-23T06:59:14;101297.34;;;10.25;100.00
20909;BME280;10614;53.198;6.570;2022-10-23T07:01:16;101304.34;;;10.26;100.00
20909;BME280;10614;53.198;6.570;2022-10-23T07:03:18;101296.41;;;10.28;100.00
20909;BME280;10614;53.198;6.570;2022-10-23T07:05:19;101300.78;;;10.29;100.00
20909;BME280;10614;53.198;6.570;2022-10-23T07:07:21;101299.00;;;10.29;100.00
20909;BME280;10614;53.198;6.570;2022-10-23T07:09:24;101299.88;;;10.30;100.00
20909;BME280;10614;53.198;6.570;2022-10-23T07:11:26;101303.31;;;10.32;100.00
20909;BME280;10614;53.198;6.570;2022-10-23T07:13:27;101298.06;;;10.32;100.00
20909;BME280;10614;53.198;6.570;2022-10-23T07:15:29;101301.50;;;10.34;100.00
20909;BME280;10614;53.198;6.570;2022-10-23T07:17:31;101305.88;;;10.35;100.00
20909;BME280;10614;53.198;6.570;2022-10-23T07:19:32;101301.41;;;10.37;100.00
20909;BME280;10614;53.198;6.570;2022-10-23T07:21:34;101303.13;;;10.38;100.00
20909;BME280;10614;53.198;6.570;2022-10-23T07:23:36;101303.94;;;10.40;100.00
20909;BME280;10614;53.198;6.570;2022-10-23T07:25:40;101297.75;;;10.41;100.00
20909;BME280;10614;53.198;6.570;2022-10-23T07:27:42;101301.22;;;10.43;100.00
20909;BME280;10614;53.198;6.570;2022-10-23T07:29:43;101291.59;;;10.42;100.00
20909;BME280;10614;53.198;6.570;2022-10-23T07:31:45;101282.69;;;10.46;100.00
20909;BME280;10614;53.198;6.570;2022-10-23T07:33:47;101290.53;;;10.48;100.00
20909;BME280;10614;53.198;6.570;2022-10-23T07:35:48;101293.97;;;10.50;100.00
20909;BME280;10614;53.198;6.570;2022-10-23T07:37:50;101283.44;;;10.50;100.00
20909;BME280;10614;53.198;6.570;2022-10-23T07:39:52;101285.13;;;10.52;100.00
20909;BME280;10614;53.198;6.570;2022-10-23T07:41:58;101277.19;;;10.54;100.00
20909;BME280;10614;53.198;6.570;2022-10-23T07:43:59;101270.19;;;10.53;100.00
20909;BME280;10614;53.198;6.570;2022-10-23T07:46:01;101275.38;;;10.56;100.00
20909;BME280;10614;53.198;6.570;2022-10-23T07:48:03;101265.69;;;10.56;100.00
20909;BME280;10614;53.198;6.570;2022-10-23T07:50:06;101261.28;;;10.57;100.00
20909;BME280;10614;53.198;6.570;2022-10-23T07:52:08;101256.94;;;10.56;100.00
20909;BME280;10614;53.198;6.570;2022-10-23T07:54:11;101254.25;;;10.57;100.00
20909;BME280;10614;53.198;6.570;2022-10-23T07:56:14;101263.88;;;10.59;100.00
20909;BME280;10614;53.198;6.570;2022-10-23T07:58:17;101264.69;;;10.61;100.00
20909;BME280;10614;53.198;6.570;2022-10-23T08:00:19;101263.75;;;10.62;100.00
20909;BME280;10614;53.198;6.570;2022-10-23T08:02:21;101254.94;;;10.63;100.00
20909;BME280;10614;53.198;6.570;2022-10-23T08:04:23;101256.63;;;10.65;100.00
20909;BME280;10614;53.198;6.570;2022-10-23T08:06:25;101255.72;;;10.66;100.00
20909;BME280;10614;53.198;6.570;2022-10-23T08:08:26;101260.00;;;10.69;100.00
20909;BME280;10614;53.198;6.570;2022-10-23T08:10:28;101247.69;;;10.69;100.00
20909;BME280;10614;53.198;6.570;2022-10-23T08:12:30;101253.78;;;10.71;100.00
20909;BME280;10614;53.198;6.570;2022-10-23T08:14:33;101247.53;;;10.74;100.00
20909;BME280;10614;53.198;6.570;2022-10-23T08:16:36;101241.38;;;10.75;100.00
20909;BME280;10614;53.198;6.570;2022-10-23T08:18:38;101234.22;;;10.78;100.00
20909;BME280;10614;53.198;6.570;2022-10-23T08:20:43;101230.69;;;10.80;100.00
20909;BME280;10614;53.198;6.570;2022-10-23T08:22:45;101227.13;;;10.81;100.00
20909;BME280;10614;53.198;6.570;2022-10-23T08:24:46;101230.53;;;10.84;100.00
20909;BME280;10614;53.198;6.570;2022-10-23T08:26:48;101225.19;;;10.86;100.00
20909;BME280;10614;53.198;6.570;2022-10-23T08:28:50;101228.59;;;10.89;100.00
20909;BME280;10614;53.198;6.570;2022-10-23T08:30:54;101221.53;;;10.90;100.00
20909;BME280;10614;53.198;6.570;2022-10-23T08:32:55;101224.94;;;10.93;100.00
20909;BME280;10614;53.198;6.570;2022-10-23T08:34:57;101235.38;;;10.96;100.00
20909;BME280;10614;53.198;6.570;2022-10-23T08:36:59;101228.28;;;10.98;100.00
20909;BME280;10614;53.198;6.570;2022-10-23T08:39:01;101232.56;;;11.01;100.00
20909;BME280;10614;53.198;6.570;2022-10-23T08:41:18;101225.41;;;11.05;100.00
20909;BME280;10614;53.198;6.570;2022-10-23T08:43:29;101218.31;;;11.07;100.00
20909;BME280;10614;53.198;6.570;2022-10-23T08:45:36;101221.75;;;11.09;100.00
20909;BME280;10614;53.198;6.570;2022-10-23T08:47:48;101224.25;;;11.12;100.00
20909;BME280;10614;53.198;6.570;2022-10-23T08:49:56;101230.25;;;11.17;100.00
20909;BME280;10614;53.198;6.570;2022-10-23T08:52:10;101224.00;;;11.19;100.00
20909;BME280;10614;53.198;6.570;2022-10-23T08:54:16;101220.31;;;11.24;100.00
20909;BME280;10614;53.198;6.570;2022-10-23T08:56:24;101220.28;;;11.25;100.00
20909;BME280;10614;53.198;6.570;2022-10-23T08:58:33;101220.16;;;11.28;100.00
20909;BME280;10614;53.198;6.570;2022-10-23T09:00:39;101217.41;;;11.31;100.00
20909;BME280;10614;53.198;6.570;2022-10-23T09:02:45;101213.84;;;11.32;100.00
20909;BME280;10614;53.198;6.570;2022-10-23T09:04:50;101209.25;;;11.37;100.00
20909;BME280;10614;53.198;6.570;2022-10-23T09:06:59;101213.50;;;11.41;100.00
20909;BME280;10614;53.198;6.570;2022-10-23T09:09:20;101213.38;;;11.45;100.00
20909;BME280;10614;53.198;6.570;2022-10-23T09:11:33;101211.50;;;11.48;100.00
20909;BME280;10614;53.198;6.570;2022-10-23T09:13:58;101206.13;;;11.51;100.00
20909;BME280;10614;53.198;6.570;2022-10-23T09:16:06;101204.22;;;11.55;100.00
20909;BME280;10614;53.198;6.570;2022-10-23T09:18:14;101204.09;;;11.58;100.00
20909;BME280;10614;53.198;6.570;2022-10-23T09:20:19;101201.34;;;11.61;100.00
20909;BME280;10614;53.198;6.570;2022-10-23T09:22:21;101201.25;;;11.64;100.00
20909;BME280;10614;53.198;6.570;2022-10-23T09:24:24;101201.91;;;11.69;100.00
20909;BME280;10614;53.198;6.570;2022-10-23T09:26:30;101207.06;;;11.72;100.00
20909;BME280;10614;53.198;6.570;2022-10-23T09:28:35;101202.53;;;11.76;100.00
20909;BME280;10614;53.198;6.570;2022-10-23T09:30:42;101198.06;;;11.78;100.00
20909;BME280;10614;53.198;6.570;2022-10-23T09:32:44;101203.16;;;11.82;100.00
20909;BME280;10614;53.198;6.570;2022-10-23T09:34:54;101193.38;;;11.84;100.00
20909;BME280;10614;53.198;6.570;2022-10-23T09:36:58;101199.44;;;11.88;100.00
20909;BME280;10614;53.198;6.570;2022-10-23T09:39:00;101195.78;;;11.92;100.00
20909;BME280;10614;53.198;6.570;2022-10-23T09:41:05;101190.38;;;11.95;100.00
20909;BME280;10614;53.198;6.570;2022-10-23T09:43:14;101179.75;;;11.97;100.00
20909;BME280;10614;53.198;6.570;2022-10-23T09:45:21;101174.31;;;12.01;100.00
20909;BME280;10614;53.198;6.570;2022-10-23T09:47:25;101172.38;;;12.05;100.00
20909;BME280;10614;53.198;6.570;2022-10-23T09:49:29;101166.91;;;12.10;100.00
20909;BME280;10614;53.198;6.570;2022-10-23T09:51:32;101162.38;;;12.13;100.00
20909;BME280;10614;53.198;6.570;2022-10-23T09:53:46;101163.94;;;12.17;100.00
20909;BME280;10614;53.198;6.570;2022-10-23T09:55:51;101155.94;;;12.20;100.00
20909;BME280;10614;53.198;6.570;2022-10-23T09:57:54;101139.97;;;12.23;100.00
20909;BME280;10614;53.198;6.570;2022-10-23T09:59:58;101132.84;;;12.25;100.00
20909;BME280;10614;53.198;6.570;2022-10-23T10:02:01;101133.50;;;12.31;100.00
20909;BME280;10614;53.198;6.570;2022-10-23T10:04:04;101138.63;;;12.34;100.00
20909;BME280;10614;53.198;6.570;2022-10-23T10:06:21;101132.31;;;12.38;100.00
20909;BME280;10614;53.198;6.570;2022-10-23T10:08:31;101129.56;;;12.41;100.00
20909;BME280;10614;53.198;6.570;2022-10-23T10:10:38;101132.06;;;12.44;100.00
20909;BME280;10614;53.198;6.570;2022-10-23T10:12:47;101136.19;;;12.50;100.00
20909;BME280;10614;53.198;6.570;2022-10-23T10:14:56;101128.06;;;12.54;100.00
20909;BME280;10614;53.198;6.570;2022-10-23T10:17:07;101120.94;;;12.56;100.00
20909;BME280;10614;53.198;6.570;2022-10-23T10:19:21;101114.66;;;12.59;100.00
20909;BME280;10614;53.198;6.570;2022-10-23T10:21:30;101116.25;;;12.63;100.00
20909;BME280;10614;53.198;6.570;2022-10-23T10:23:41;101115.13;;;12.68;100.00
20909;BME280;10614;53.198;6.570;2022-10-23T10:25:52;101117.50;;;12.75;100.00
20909;BME280;10614;53.198;6.570;2022-10-23T10:28:08;101116.44;;;12.79;100.00
20909;BME280;10614;53.198;6.570;2022-10-23T10:30:17;101110.06;;;12.83;100.00
20909;BME280;10614;53.198;6.570;2022-10-23T10:32:29;101101.19;;;12.85;100.00
20909;BME280;10614;53.198;6.570;2022-10-23T10:34:40;101103.63;;;12.90;100.00
20909;BME280;10614;53.198;6.570;2022-10-23T10:36:48;101108.75;;;12.93;100.00
20909;BME280;10614;53.198;6.570;2022-10-23T10:38:55;101108.59;;;12.96;100.00
20909;BME280;10614;53.198;6.570;2022-10-23T10:41:19;101104.09;;;12.98;100.00